createdAt,value
2019-02-06T00:00:37.890Z,27.9
2019-02-06T00:02:09.947Z,27.7
2019-02-06T00:03:03.348Z,27.6
2019-02-06T00:03:49.790Z,27.4
2019-02-06T00:04:40.933Z,27.1
2019-02-06T00:05:30.220Z,26.5
2019-02-06T00:06:19.490Z,26.2
2019-02-06T00:07:10.135Z,25.9
2019-02-06T00:08:00.244Z,25.8
2019-02-06T00:08:53.054Z,25.6
2019-02-06T00:09:40.777Z,25.8
2019-02-06T00:10:31.114Z,26.1
2019-02-06T00:11:20.797Z,26.5
2019-02-06T00:12:10.992Z,26.8
2019-02-06T00:13:01.483Z,26.8
2019-02-06T00:13:51.464Z,26.9
2019-02-06T00:14:42.452Z,27.1
2019-02-06T00:15:30.318Z,27.4
2019-02-06T00:16:21.301Z,27.6
2019-02-06T00:17:10.554Z,27.9
2019-02-06T00:18:04.764Z,28.1
2019-02-06T00:18:51.106Z,28.4
2019-02-06T00:19:40.214Z,28.6
2019-02-06T00:20:31.809Z,28.6
2019-02-06T00:21:24.897Z,28.4
2019-02-06T00:22:11.380Z,28.3
2019-02-06T00:23:00.376Z,28.3
2019-02-06T00:23:54.214Z,28.1
2019-02-06T00:24:42.501Z,28
2019-02-06T00:25:31.211Z,27.9
2019-02-06T00:26:20.981Z,27.8
2019-02-06T00:27:12.754Z,27.6
2019-02-06T00:28:01.971Z,27.5
2019-02-06T00:28:51.204Z,27.4
2019-02-06T00:29:42.436Z,26.9
2019-02-06T00:30:31.871Z,26.4
2019-02-06T00:31:22.271Z,26.1
2019-02-06T00:32:12.096Z,25.9
2019-02-06T00:33:04.255Z,25.8
2019-02-06T00:33:52.712Z,25.6
2019-02-06T00:34:42.198Z,25.8
2019-02-06T00:35:34.982Z,26.1
2019-02-06T00:36:24.963Z,26.6
2019-02-06T00:37:12.520Z,26.7
2019-02-06T00:38:06.445Z,26.8
2019-02-06T00:38:52.453Z,26.9
2019-02-06T00:39:42.563Z,27.1
2019-02-06T00:40:33.388Z,27.4
2019-02-06T00:41:22.057Z,27.6
2019-02-06T00:42:14.945Z,27.9
2019-02-06T00:43:02.485Z,28.2
2019-02-06T00:43:52.205Z,28.4
2019-02-06T00:44:42.967Z,28.6
2019-02-06T00:45:35.017Z,28.5
2019-02-06T00:46:23.495Z,28.4
2019-02-06T00:47:13.587Z,28.3
2019-02-06T00:48:02.663Z,28.2
2019-02-06T00:48:53.454Z,28.1
2019-02-06T00:49:43.490Z,28
2019-02-06T00:51:25.845Z,27.7
2019-02-06T00:52:12.927Z,27.6
2019-02-06T00:53:03.995Z,27.5
2019-02-06T00:53:53.316Z,26.8
2019-02-06T00:54:45.387Z,26.4
2019-02-06T00:55:34.016Z,26.2
2019-02-06T00:56:23.954Z,26
2019-02-06T00:57:15.004Z,25.8
2019-02-06T00:58:03.634Z,25.7
2019-02-06T00:58:53.574Z,25.7
2019-02-06T00:59:43.154Z,26.1
2019-02-06T01:00:36.596Z,26.4
2019-02-06T01:01:24.593Z,26.6
2019-02-06T01:02:14.441Z,26.7
2019-02-06T01:03:04.534Z,26.9
2019-02-06T01:03:54.059Z,27.1
2019-02-06T01:04:43.949Z,27.3
2019-02-06T01:05:47.087Z,27.6
2019-02-06T01:06:26.246Z,27.9
2019-02-06T01:07:14.596Z,28.1
2019-02-06T01:08:04.207Z,28.3
2019-02-06T01:08:55.395Z,28.5
2019-02-06T01:09:47.576Z,28.5
2019-02-06T01:10:34.791Z,28.4
2019-02-06T01:11:23.891Z,28.3
2019-02-06T01:12:14.634Z,28.2
2019-02-06T01:13:04.893Z,28.1
2019-02-06T01:13:54.493Z,27.9
2019-02-06T01:14:45.055Z,27.9
2019-02-06T01:15:37.278Z,27.8
2019-02-06T01:16:25.410Z,27.6
2019-02-06T01:17:14.848Z,27.5
2019-02-06T01:18:05.569Z,27.4
2019-02-06T01:18:57.263Z,26.7
2019-02-06T01:19:45.750Z,26.3
2019-02-06T01:20:35.095Z,26.1
2019-02-06T01:21:26.156Z,25.9
2019-02-06T01:22:15.373Z,25.8
2019-02-06T01:23:04.287Z,25.6
2019-02-06T01:23:56.510Z,25.9
2019-02-06T01:24:48.263Z,26.3
2019-02-06T01:25:35.242Z,26.8
2019-02-06T01:26:25.643Z,26.8
2019-02-06T01:27:15.962Z,26.9
2019-02-06T01:28:06.399Z,27.1
2019-02-06T01:28:56.487Z,27.2
2019-02-06T01:29:45.795Z,27.5
2019-02-06T01:30:37.915Z,27.8
2019-02-06T01:31:26.422Z,28
2019-02-06T01:32:16.214Z,28.3
2019-02-06T01:33:06.039Z,28.4
2019-02-06T01:33:58.924Z,28.6
2019-02-06T01:34:46.979Z,28.5
2019-02-06T01:35:36.591Z,28.4
2019-02-06T01:36:27.071Z,28.3
2019-02-06T01:37:16.787Z,28.1
2019-02-06T01:38:06.421Z,28
2019-02-06T01:38:55.569Z,27.9
2019-02-06T01:40:37.098Z,27.7
2019-02-06T01:41:26.918Z,27.6
2019-02-06T01:42:17.463Z,27.4
2019-02-06T01:43:06.163Z,27.3
2019-02-06T01:43:56.728Z,26.6
2019-02-06T01:44:47.464Z,26.3
2019-02-06T01:45:38.501Z,26
2019-02-06T01:46:27.209Z,25.8
2019-02-06T01:47:17.732Z,25.8
2019-02-06T01:48:06.796Z,25.6
2019-02-06T01:49:00.439Z,26
2019-02-06T01:49:50.301Z,26.3
2019-02-06T01:50:37.770Z,26.9
2019-02-06T01:51:28.150Z,26.8
2019-02-06T01:52:18.032Z,26.9
2019-02-06T01:53:07.115Z,27.1
2019-02-06T01:53:57.875Z,27.3
2019-02-06T01:54:50.115Z,27.6
2019-02-06T01:56:28.295Z,28.1
2019-02-06T01:57:17.744Z,28.3
2019-02-06T01:58:10.507Z,28.5
2019-02-06T01:58:57.538Z,28.6
2019-02-06T01:59:47.982Z,28.4
2019-02-06T02:00:39.230Z,28.4
2019-02-06T02:01:28.348Z,28.3
2019-02-06T02:02:18.067Z,28.1
2019-02-06T02:03:09.060Z,28
2019-02-06T02:04:00.492Z,27.9
2019-02-06T02:04:48.882Z,27.8
2019-02-06T02:05:41.665Z,27.7
2019-02-06T02:06:28.700Z,27.5
2019-02-06T02:07:17.492Z,27.3
2019-02-06T02:08:08.233Z,26.6
2019-02-06T02:08:57.949Z,26.3
2019-02-06T02:09:50.452Z,26.1
2019-02-06T02:10:38.349Z,25.9
2019-02-06T02:11:28.947Z,25.8
2019-02-06T02:12:18.394Z,25.7
2019-02-06T02:13:12.356Z,25.9
2019-02-06T02:13:58.319Z,26.2
2019-02-06T02:14:49.210Z,26.7
2019-02-06T02:15:39.239Z,26.8
2019-02-06T02:16:29.146Z,26.8
2019-02-06T02:17:19.664Z,27.1
2019-02-06T02:18:08.134Z,27.3
2019-02-06T02:19:01.376Z,27.4
2019-02-06T02:19:49.576Z,27.8
2019-02-06T02:20:39.741Z,28
2019-02-06T02:21:29.413Z,28.3
2019-02-06T02:22:21.244Z,28.4
2019-02-06T02:23:09.789Z,28.6
2019-02-06T02:24:00.536Z,28.5
2019-02-06T02:24:50.155Z,28.4
2019-02-06T02:25:39.250Z,28.3
2019-02-06T02:26:29.176Z,28.2
2019-02-06T02:27:19.806Z,28.1
2019-02-06T02:28:12.856Z,27.9
2019-02-06T02:29:50.251Z,27.7
2019-02-06T02:30:40.396Z,27.6
2019-02-06T02:31:35.054Z,27.4
2019-02-06T02:32:20.519Z,26.9
2019-02-06T02:33:09.976Z,26.6
2019-02-06T02:33:59.495Z,26.2
2019-02-06T02:34:50.079Z,26
2019-02-06T02:35:40.733Z,25.9
2019-02-06T02:36:30.311Z,25.8
2019-02-06T02:37:24.130Z,25.6
2019-02-06T02:38:11.603Z,26.1
2019-02-06T02:39:00.355Z,26.3
2019-02-06T02:39:51.395Z,26.9
2019-02-06T02:40:42.916Z,26.8
2019-02-06T02:41:30.849Z,26.9
2019-02-06T02:42:20.295Z,27.1
2019-02-06T02:43:12.034Z,27.3
2019-02-06T02:44:01.310Z,27.6
2019-02-06T02:45:41.345Z,28.1
2019-02-06T02:46:34.477Z,28.3
2019-02-06T02:47:22.207Z,28.5
2019-02-06T02:48:12.274Z,28.5
2019-02-06T02:49:02.132Z,28.4
2019-02-06T02:49:52.397Z,28.3
2019-02-06T02:50:40.982Z,28.2
2019-02-06T02:51:32.164Z,28.1
2019-02-06T02:52:22.595Z,28
2019-02-06T02:54:01.811Z,27.8
2019-02-06T02:54:52.626Z,27.6
2019-02-06T02:55:45.979Z,27.5
2019-02-06T02:56:32.879Z,27.4
2019-02-06T02:57:22.512Z,26.9
2019-02-06T02:58:12.431Z,26.4
2019-02-06T02:59:02.519Z,26.2
2019-02-06T02:59:52.141Z,25.9
2019-02-06T03:00:42.351Z,25.8
2019-02-06T03:01:33.924Z,25.7
2019-02-06T03:02:22.894Z,25.8
2019-02-06T03:03:12.389Z,26.1
2019-02-06T03:04:02.883Z,26.5
2019-02-06T03:04:55.346Z,26.8
2019-02-06T03:08:26.319Z,27.4
2019-02-06T03:09:15.204Z,27.7
2019-02-06T03:10:05.363Z,27.9
2019-02-06T03:10:54.732Z,28.2
2019-02-06T03:11:47.508Z,28.4
2019-02-06T03:12:34.776Z,28.6
2019-02-06T03:13:24.619Z,28.5
2019-02-06T03:14:15.521Z,28.4
2019-02-06T03:15:05.577Z,28.3
2019-02-06T03:15:55.930Z,28.2
2019-02-06T03:16:45.755Z,28.1
2019-02-06T03:17:38.646Z,27.9
2019-02-06T03:19:15.632Z,27.7
2019-02-06T03:20:05.966Z,27.6
2019-02-06T03:20:58.136Z,27.4
2019-02-06T03:21:46.028Z,26.7
2019-02-06T03:22:39.937Z,26.4
2019-02-06T03:23:26.695Z,26.1
2019-02-06T03:24:16.018Z,25.9
2019-02-06T03:25:06.605Z,25.8
2019-02-06T03:25:55.895Z,25.7
2019-02-06T03:26:48.448Z,25.8
2019-02-06T03:27:36.717Z,26.1
2019-02-06T03:28:26.518Z,26.6
2019-02-06T03:29:15.979Z,26.9
2019-02-06T03:30:09.338Z,26.8
2019-02-06T03:30:56.376Z,27
2019-02-06T03:31:46.913Z,27.2
2019-02-06T03:32:36.913Z,27.4
2019-02-06T03:33:27.863Z,27.6
2019-02-06T03:34:16.436Z,27.9
2019-02-06T03:35:06.975Z,28.1
2019-02-06T03:35:59.839Z,28.4
2019-02-06T03:36:50.311Z,28.6
2019-02-06T03:37:37.131Z,28.6
2019-02-06T03:38:27.274Z,28.4
2019-02-06T03:39:17.281Z,28.4
2019-02-06T03:40:07.274Z,28.3
2019-02-06T03:40:57.115Z,28.1
2019-02-06T03:41:49.508Z,28
2019-02-06T03:42:36.656Z,27.9
2019-02-06T03:43:27.390Z,27.8
2019-02-06T03:44:17.433Z,27.6
2019-02-06T03:45:09.716Z,27.5
2019-02-06T03:45:57.791Z,27.4
2019-02-06T03:46:48.194Z,26.7
2019-02-06T03:47:38.495Z,26.3
2019-02-06T03:48:27.864Z,26.1
2019-02-06T03:49:17.216Z,25.9
2019-02-06T03:50:07.845Z,25.8
2019-02-06T03:51:00.511Z,25.7
2019-02-06T03:51:48.636Z,25.9
2019-02-06T03:52:37.651Z,26.2
2019-02-06T03:53:27.968Z,26.6
2019-02-06T03:54:19.453Z,26.8
2019-02-06T03:55:08.431Z,26.8
2019-02-06T03:55:57.877Z,27
2019-02-06T03:56:48.916Z,27.2
2019-02-06T03:57:38.857Z,27.4
2019-02-06T03:58:28.039Z,27.7
2019-02-06T03:59:18.952Z,27.9
2019-02-06T04:00:12.045Z,28.1
2019-02-06T04:00:58.765Z,28.4
2019-02-06T04:01:48.560Z,28.5
2019-02-06T04:02:38.840Z,28.5
2019-02-06T04:03:29.225Z,28.4
2019-02-06T04:04:19.027Z,28.3
2019-02-06T04:05:08.745Z,28.2
2019-02-06T04:06:00.907Z,28.1
2019-02-06T04:07:10.809Z,27.9
2019-02-06T04:08:29.040Z,27.7
2019-02-06T04:09:21.951Z,27.6
2019-02-06T04:10:09.082Z,27.5
2019-02-06T04:10:59.204Z,27.4
2019-02-06T04:11:49.960Z,26.6
2019-02-06T04:12:39.371Z,26.3
2019-02-06T04:13:29.639Z,26.1
2019-02-06T04:14:19.485Z,25.9
2019-02-06T04:15:12.985Z,25.8
2019-02-06T04:16:00.241Z,25.7
2019-02-06T04:16:50.502Z,25.9
2019-02-06T04:17:37.987Z,26.1
2019-02-06T04:18:30.842Z,26.6
2019-02-06T04:19:19.559Z,26.9
2019-02-06T04:20:09.444Z,26.9
2019-02-06T04:21:00.673Z,27
2019-02-06T04:21:50.636Z,27.3
2019-02-06T04:22:39.597Z,27.4
2019-02-06T04:23:30.402Z,27.7
2019-02-06T04:24:22.869Z,27.9
2019-02-06T04:25:25.340Z,28.1
2019-02-06T04:26:00.832Z,28.5
2019-02-06T04:26:50.368Z,28.3
2019-02-06T04:27:42.651Z,27.6
2019-02-06T04:28:30.434Z,26.6
2019-02-06T04:29:20.473Z,25.8
2019-02-06T04:30:11.349Z,25.6
2019-02-06T04:31:01.305Z,25.9
2019-02-06T04:31:50.744Z,26.7
2019-02-06T04:32:40.498Z,26.9
2019-02-06T04:33:33.383Z,27.1
2019-02-06T06:06:23.515Z,25.6
2019-02-06T06:07:14.674Z,26.1
2019-02-06T06:08:06.815Z,26.1
2019-02-06T06:08:54.075Z,26.3
2019-02-06T06:09:43.794Z,26.5
2019-02-06T06:10:34.977Z,26.8
2019-02-06T06:11:26.247Z,27
2019-02-06T06:12:14.824Z,27.3
2019-02-06T06:13:04.562Z,27.5
2019-02-06T06:13:55.814Z,27.8
2019-02-06T06:14:45.462Z,28
2019-02-06T06:15:34.982Z,28.3
2019-02-06T06:16:25.094Z,28.4
2019-02-06T06:17:17.104Z,28.6
2019-02-06T06:18:05.171Z,28.5
2019-02-06T06:18:55.742Z,28.4
2019-02-06T06:19:45.831Z,28.3
2019-02-06T06:20:35.046Z,28.2
2019-02-06T06:21:25.331Z,28.1
2019-02-06T06:22:15.705Z,28
2019-02-06T06:23:55.833Z,27.7
2019-02-06T06:24:45.294Z,27.6
2019-02-06T06:25:36.310Z,27.5
2019-02-06T06:26:27.057Z,26.9
2019-02-06T06:27:16.044Z,26.3
2019-02-06T06:28:06.669Z,26
2019-02-06T06:28:56.962Z,25.8
2019-02-06T06:29:46.258Z,25.6
2019-02-06T06:30:36.244Z,25.8
2019-02-06T06:31:25.615Z,26.1
2019-02-06T06:32:18.863Z,26.2
2019-02-06T06:33:07.088Z,26.3
2019-02-06T06:33:56.015Z,26.6
2019-02-06T06:34:45.213Z,26.8
2019-02-06T06:35:36.042Z,27.1
2019-02-06T06:36:26.465Z,27.3
2019-02-06T06:37:16.927Z,27.6
2019-02-06T06:38:12.014Z,27.9
2019-02-06T06:38:56.953Z,28.1
2019-02-06T06:39:47.461Z,28.3
2019-02-06T06:40:36.182Z,28.5
2019-02-06T06:41:28.551Z,28.6
2019-02-06T06:42:16.027Z,28.5
2019-02-06T06:43:07.709Z,28.4
2019-02-06T06:43:57.187Z,28.3
2019-02-06T06:44:46.402Z,28.2
2019-02-06T06:45:37.051Z,28.1
2019-02-06T06:46:26.255Z,27.9
2019-02-06T06:48:07.505Z,27.7
2019-02-06T06:48:56.982Z,27.6
2019-02-06T06:49:47.622Z,27.4
2019-02-06T06:50:40.531Z,26.7
2019-02-06T06:51:28.046Z,26.1
2019-02-06T06:52:17.624Z,25.9
2019-02-06T06:53:07.802Z,25.7
2019-02-06T06:53:57.572Z,25.6
2019-02-06T06:54:47.944Z,25.4
2019-02-06T06:55:41.203Z,25.3
2019-02-06T06:56:28.946Z,25.2
2019-02-06T06:57:20.697Z,25.1
2019-02-06T06:58:07.531Z,25
2019-02-06T06:58:58.329Z,24.9
2019-02-06T06:59:49.254Z,24.9
2019-02-06T07:00:37.786Z,25.3
2019-02-06T07:01:27.684Z,25.7
2019-02-06T07:02:19.113Z,26.3
2019-02-06T07:03:07.625Z,27.1
2019-02-06T07:03:58.612Z,26.8
2019-02-06T07:06:24.615Z,26.5
2019-02-06T07:07:14.311Z,26.3
2019-02-06T07:08:20.529Z,26.3
2019-02-06T07:08:54.414Z,26.1
2019-02-06T07:09:44.645Z,26
2019-02-06T07:10:35.431Z,25.9
2019-02-06T07:11:26.632Z,25.8
2019-02-06T07:12:15.002Z,25.7
2019-02-06T07:13:04.822Z,25.4
2019-02-06T07:13:57.975Z,25.5
2019-02-06T07:14:46.037Z,25.4
2019-02-06T07:15:35.433Z,25.3
2019-02-06T07:16:24.910Z,25.2
2019-02-06T07:17:16.052Z,25.1
2019-02-06T07:18:05.137Z,25
2019-02-06T07:18:55.924Z,24.9
2019-02-06T07:19:45.561Z,24.8
2019-02-06T07:20:37.960Z,24.8
2019-02-06T07:21:25.005Z,25.1
2019-02-06T07:22:15.885Z,25.4
2019-02-06T07:23:04.878Z,26.1
2019-02-06T07:23:55.449Z,26.8
2019-02-06T07:24:45.764Z,26.7
2019-02-06T07:25:34.774Z,26.7
2019-02-06T07:26:27.012Z,26.8
2019-02-06T07:27:15.422Z,27
2019-02-06T07:28:06.140Z,27.2
2019-02-06T07:29:49.002Z,28
2019-02-06T07:30:36.283Z,27.4
2019-02-06T07:31:26.636Z,26.8
2019-02-06T07:32:15.833Z,25.8
2019-02-06T07:33:05.621Z,25
2019-02-06T07:33:55.703Z,24.8
2019-02-06T07:34:46.496Z,25.1
2019-02-06T07:35:37.794Z,25.9
2019-02-06T07:36:25.764Z,26.8
2019-02-06T07:37:16.048Z,26.9
2019-02-06T07:38:06.458Z,26.8
2019-02-06T07:38:58.566Z,26.6
2019-02-06T07:39:46.113Z,26.5
2019-02-06T07:40:36.678Z,26.4
2019-02-06T07:41:27.698Z,26.3
2019-02-06T07:42:17.245Z,26.2
2019-02-06T07:43:07.565Z,26.1
2019-02-06T07:43:56.068Z,26
2019-02-06T07:44:49.890Z,25.9
2019-02-06T07:45:37.505Z,25.8
2019-02-06T07:46:27.912Z,25.5
2019-02-06T07:47:17.416Z,25.5
2019-02-06T07:48:06.755Z,25.4
2019-02-06T07:48:56.932Z,25.3
2019-02-06T07:49:47.811Z,25.2
2019-02-06T07:50:38.397Z,25.1
2019-02-06T07:51:27.462Z,25
2019-02-06T07:52:17.238Z,24.9
2019-02-06T07:53:07.928Z,24.8
2019-02-06T07:54:00.660Z,24.9
2019-02-06T07:54:47.625Z,25.1
2019-02-06T07:55:37.692Z,25.5
2019-02-06T07:56:27.797Z,26.3
2019-02-06T07:57:17.492Z,26.7
2019-02-06T07:58:08.162Z,26.6
2019-02-06T07:58:59.607Z,26.7
2019-02-06T07:59:50.662Z,26.8
2019-02-06T08:00:37.859Z,27
2019-02-06T08:01:28.283Z,27.3
2019-02-06T08:02:17.414Z,27.4
2019-02-06T08:03:09.843Z,27.4
2019-02-06T08:03:57.431Z,27.4
2019-02-06T08:04:50.811Z,27.3
2019-02-06T08:05:39.342Z,27.1
2019-02-06T08:06:28.145Z,27
2019-02-06T08:07:18.737Z,26.9
2019-02-06T08:08:08.040Z,26.8
2019-02-06T08:09:00.666Z,26.7
2019-02-06T08:09:48.621Z,26.6
2019-02-06T08:10:39.075Z,26.4
2019-02-06T08:11:28.780Z,26
2019-02-06T08:12:20.077Z,25.9
2019-02-06T08:13:08.189Z,25.8
2019-02-06T08:13:58.912Z,25.7
2019-02-06T08:14:50.710Z,25.6
2019-02-06T08:15:39.027Z,25.4
2019-02-06T08:16:28.918Z,25.3
2019-02-06T08:17:18.609Z,25.2
2019-02-06T08:18:11.990Z,25.1
2019-02-06T08:18:59.572Z,25
2019-02-06T08:19:49.494Z,24.9
2019-02-06T08:20:39.131Z,25.1
2019-02-06T08:21:29.182Z,25.3
2019-02-06T08:22:19.499Z,25.8
2019-02-06T08:23:09.624Z,26.6
2019-02-06T08:24:01.476Z,26.8
2019-02-06T08:24:49.956Z,26.7
2019-02-06T08:25:39.606Z,26.8
2019-02-06T08:26:29.286Z,26.9
2019-02-06T08:27:22.190Z,27.1
2019-02-06T08:28:09.715Z,27.3
2019-02-06T08:28:59.442Z,27.4
2019-02-06T08:29:50.576Z,27.4
2019-02-06T08:30:39.983Z,27.3
2019-02-06T08:31:31.096Z,27.3
2019-02-06T08:32:20.511Z,27.1
2019-02-06T08:33:12.175Z,27
2019-02-06T08:33:59.855Z,26.9
2019-02-06T08:34:50.715Z,26.8
2019-02-06T08:35:40.750Z,26.7
2019-02-06T08:36:32.733Z,26.6
2019-02-06T08:37:20.645Z,26.4
2019-02-06T08:38:11.551Z,26.4
2019-02-06T08:39:04.093Z,25.9
2019-02-06T08:39:51.539Z,25.8
2019-02-06T08:40:40.950Z,25.6
2019-02-06T08:41:30.301Z,25.5
2019-02-06T08:42:22.975Z,25.4
2019-02-06T08:43:11.285Z,25.3
2019-02-06T08:44:04.118Z,25.2
2019-02-06T08:44:51.475Z,25.1
2019-02-06T08:45:43.625Z,25
2019-02-06T08:46:31.795Z,24.9
2019-02-06T08:47:21.652Z,25.1
2019-02-06T08:48:12.167Z,25.3
2019-02-06T08:49:01.635Z,25.7
2019-02-06T08:49:52.220Z,26.3
2019-02-06T08:50:41.740Z,26.1
2019-02-06T08:51:33.878Z,26.3
2019-02-06T08:52:21.390Z,26.4
2019-02-06T08:53:12.060Z,26.6
2019-02-06T08:54:02.119Z,26.8
2019-02-06T08:54:52.827Z,27.1
2019-02-06T08:55:41.844Z,27.4
2019-02-06T08:56:31.922Z,27.4
2019-02-06T08:57:23.492Z,27.4
2019-02-06T08:58:11.773Z,27.3
2019-02-06T08:59:02.597Z,27.2
2019-02-06T08:59:51.847Z,27.1
2019-02-06T09:00:45.673Z,27
2019-02-06T09:01:31.697Z,26.9
2019-02-06T09:02:21.557Z,26.8
2019-02-06T09:03:12.784Z,26.6
2019-02-06T09:04:02.407Z,26.5
2019-02-06T09:05:08.042Z,26.4
2019-02-06T09:05:42.052Z,25.6
2019-02-06T09:06:34.712Z,25.4
2019-02-06T09:07:22.478Z,25.1
2019-02-06T09:08:12.809Z,24.9
2019-02-06T09:09:08.601Z,24.8
2019-02-06T09:09:54.958Z,24.7
2019-02-06T09:10:43.009Z,24.6
2019-02-06T09:11:32.967Z,24.4
2019-02-06T09:12:21.873Z,24.9
2019-02-06T09:13:13.666Z,25.2
2019-02-06T09:14:03.416Z,25.3
2019-02-06T09:14:52.909Z,25.5
2019-02-06T09:15:45.970Z,25.8
2019-02-06T09:16:33.581Z,26
2019-02-06T09:17:23.429Z,26.3
2019-02-06T09:18:13.671Z,26.6
2019-02-06T09:19:05.335Z,26.8
2019-02-06T09:19:53.618Z,27.1
2019-02-06T09:20:43.573Z,27.4
2019-02-06T09:21:34.220Z,27.4
2019-02-06T09:22:24.248Z,27.4
2019-02-06T09:23:13.525Z,27.3
2019-02-06T09:24:04.008Z,27.3
2019-02-06T09:24:56.980Z,27.1
2019-02-06T09:25:44.198Z,27
2019-02-06T09:26:40.413Z,26.9
2019-02-06T09:27:24.346Z,26.8
2019-02-06T09:28:14.653Z,26.7
2019-02-06T09:29:03.722Z,26.6
2019-02-06T09:29:54.755Z,26.4
2019-02-06T09:30:46.616Z,25.8
2019-02-06T09:31:34.337Z,25.4
2019-02-06T09:32:24.762Z,25.1
2019-02-06T09:33:14.475Z,24.9
2019-02-06T09:34:06.317Z,24.8
2019-02-06T09:34:54.315Z,24.7
2019-02-06T09:35:43.936Z,24.6
2019-02-06T09:36:35.089Z,24.5
2019-02-06T09:37:25.059Z,24.8
2019-02-06T09:38:15.035Z,25.1
2019-02-06T09:39:17.310Z,25.3
2019-02-06T09:39:58.033Z,25.5
2019-02-06T09:40:45.002Z,25.8
2019-02-06T09:41:35.462Z,26
2019-02-06T09:42:25.512Z,26.3
2019-02-06T09:43:15.390Z,26.5
2019-02-06T09:44:04.711Z,26.7
2019-02-06T09:44:56.082Z,26.8
2019-02-06T09:45:47.106Z,26.6
2019-02-06T09:46:35.142Z,26.6
2019-02-06T09:47:25.563Z,26.4
2019-02-06T09:48:15.987Z,26.3
2019-02-06T09:49:08.019Z,26.3
2019-02-06T09:49:58.460Z,26.1
2019-02-06T09:50:45.117Z,26
2019-02-06T09:51:36.134Z,25.9
2019-02-06T09:52:34.446Z,25.8
2019-02-06T09:53:15.060Z,25.7
2019-02-06T09:54:06.466Z,25.6
2019-02-06T09:54:58.268Z,25.5
2019-02-06T09:55:45.375Z,25.4
2019-02-06T09:56:36.159Z,25.3
2019-02-06T09:57:26.416Z,25.2
2019-02-06T09:58:18.544Z,25.1
2019-02-06T09:59:06.631Z,25
2019-02-06T09:59:56.176Z,24.9
2019-02-06T10:00:47.153Z,24.8
2019-02-06T10:01:36.653Z,24.8
2019-02-06T10:02:25.919Z,24.6
2019-02-06T10:03:15.468Z,24.6
2019-02-06T10:04:08.923Z,24.5
2019-02-06T10:04:56.803Z,24.4
2019-02-06T10:07:24.479Z,24.1
2019-02-06T10:08:14.735Z,24.1
2019-02-06T10:09:04.033Z,23.9
2019-02-06T10:10:00.478Z,23.9
2019-02-06T10:10:44.076Z,23.8
2019-02-06T10:11:34.372Z,23.7
2019-02-06T10:12:24.217Z,23.6
2019-02-06T10:13:19.458Z,23.6
2019-02-06T10:14:05.842Z,23.4
2019-02-06T10:14:54.382Z,23.4
2019-02-06T10:15:44.700Z,23.3
2019-02-06T10:16:35.122Z,23.3
2019-02-06T10:17:24.863Z,23.1
2019-02-06T10:18:15.412Z,23.1
2019-02-06T10:19:07.589Z,23
2019-02-06T10:19:54.497Z,22.9
2019-02-06T10:20:45.025Z,22.8
2019-02-06T10:21:35.527Z,22.8
2019-02-06T10:22:26.639Z,22.7
2019-02-06T10:23:15.542Z,22.6
2019-02-06T10:24:04.458Z,22.5
2019-02-06T10:24:56.129Z,22.4
2019-02-06T10:25:45.574Z,22.4
2019-02-06T10:26:35.679Z,22.3
2019-02-06T10:27:28.457Z,22.3
2019-02-06T10:28:17.867Z,22.1
2019-02-06T10:29:05.117Z,22.1
2019-02-06T10:29:55.354Z,22
2019-02-06T10:30:46.257Z,21.9
2019-02-06T10:31:39.176Z,21.8
2019-02-06T10:32:26.166Z,21.8
2019-02-06T10:33:19.945Z,21.7
2019-02-06T10:34:06.779Z,21.6
2019-02-06T10:34:55.794Z,21.6
2019-02-06T10:35:46.094Z,21.5
2019-02-06T10:36:35.521Z,21.4
2019-02-06T10:37:31.368Z,21.3
2019-02-06T10:38:15.680Z,21.3
2019-02-06T10:39:06.011Z,21.2
2019-02-06T10:40:46.684Z,21.1
2019-02-06T10:41:36.263Z,21
2019-02-06T10:42:26.547Z,20.9
2019-02-06T10:43:35.095Z,20.9
2019-02-06T10:44:06.606Z,20.8
2019-02-06T10:44:57.004Z,20.8
2019-02-06T10:45:47.282Z,20.7
2019-02-06T10:46:38.085Z,20.6
2019-02-06T10:47:27.406Z,20.6
2019-02-06T10:48:17.011Z,20.5
2019-02-06T10:49:06.749Z,20.4
2019-02-06T10:49:57.348Z,20.4
2019-02-06T10:50:46.939Z,20.3
2019-02-06T10:51:36.707Z,20.3
2019-02-06T10:52:30.093Z,20.2
2019-02-06T10:53:17.048Z,20.1
2019-02-06T10:54:07.911Z,20.1
2019-02-06T10:54:57.695Z,20
2019-02-06T10:55:46.862Z,19.9
2019-02-06T10:56:36.975Z,19.9
2019-02-06T10:57:27.130Z,19.8
2019-02-06T10:58:18.285Z,19.8
2019-02-06T10:59:08.251Z,19.7
2019-02-06T10:59:57.845Z,19.6
2019-02-06T11:00:48.502Z,19.6
2019-02-06T11:01:39.872Z,19.5
2019-02-06T11:02:27.422Z,19.5
2019-02-06T11:03:17.012Z,19.4
2019-02-06T11:04:07.437Z,19.4
2019-02-06T11:04:58.957Z,19.3
2019-02-06T11:05:48.057Z,19.3
2019-02-06T11:06:37.704Z,19.2
2019-02-06T11:07:29.850Z,19.2
2019-02-06T11:08:17.854Z,19.1
2019-02-06T11:09:08.180Z,19.1
2019-02-06T11:09:57.877Z,19
2019-02-06T11:10:51.321Z,18.9
2019-02-06T11:11:39.172Z,18.9
2019-02-06T11:12:32.125Z,18.9
2019-02-06T11:13:19.036Z,18.8
2019-02-06T11:14:09.291Z,18.8
2019-02-06T11:16:03.896Z,18.6
2019-02-06T11:16:41.666Z,18.6
2019-02-06T11:17:29.529Z,18.6
2019-02-06T11:18:18.759Z,18.5
2019-02-06T11:19:09.356Z,18.4
2019-02-06T11:20:01.093Z,18.4
2019-02-06T11:20:49.282Z,18.3
2019-02-06T11:21:39.546Z,18.3
2019-02-06T11:22:29.807Z,18.3
2019-02-06T11:23:20.489Z,18.2
2019-02-06T11:24:08.675Z,18.2
2019-02-06T11:24:59.027Z,18.1
2019-02-06T11:25:52.728Z,18.1
2019-02-06T11:26:39.886Z,18.1
2019-02-06T11:27:29.918Z,18
2019-02-06T11:28:18.773Z,17.9
2019-02-06T11:29:11.186Z,17.9
2019-02-06T11:29:59.838Z,17.9
2019-02-06T11:30:50.195Z,17.8
2019-02-06T11:31:40.641Z,17.8
2019-02-06T11:32:29.746Z,17.8
2019-02-06T11:33:20.618Z,17.7
2019-02-06T11:34:09.845Z,17.6
2019-02-06T11:35:05.395Z,17.6
2019-02-06T11:35:50.578Z,17.6
2019-02-06T11:36:40.100Z,17.6
2019-02-06T11:37:30.600Z,17.5
2019-02-06T11:38:18.785Z,17.4
2019-02-06T11:39:10.273Z,17.4
2019-02-06T11:40:07.206Z,17.4
2019-02-06T11:40:51.827Z,17.3
2019-02-06T11:41:40.074Z,17.3
2019-02-06T11:42:29.895Z,17.3
2019-02-06T11:43:20.477Z,17.2
2019-02-06T11:44:25.045Z,17.2
2019-02-06T11:45:01.711Z,17.1
2019-02-06T11:45:51.294Z,17.1
2019-02-06T11:46:41.263Z,17.1
2019-02-06T11:49:11.462Z,16.9
2019-02-06T11:50:03.727Z,16.9
2019-02-06T11:50:51.393Z,16.9
2019-02-06T11:51:41.894Z,16.9
2019-02-06T11:52:31.631Z,16.8
2019-02-06T11:53:27.789Z,16.8
2019-02-06T11:54:12.069Z,16.8
2019-02-06T11:55:02.111Z,16.7
2019-02-06T11:55:52.169Z,16.7
2019-02-06T11:56:41.676Z,16.6
2019-02-06T11:57:32.941Z,16.6
2019-02-06T11:58:21.811Z,16.6
2019-02-06T11:59:14.244Z,16.6
2019-02-06T12:00:02.028Z,16.5
2019-02-06T12:00:55.024Z,16.4
2019-02-06T12:01:41.782Z,16.4
2019-02-06T12:02:44.456Z,16.4
2019-02-06T12:03:24.375Z,16.4
2019-02-06T12:04:11.981Z,16.4
2019-02-06T12:05:03.171Z,16.3
2019-02-06T12:07:23.248Z,16.3
2019-02-06T12:08:19.683Z,16.2
2019-02-06T12:09:03.552Z,16.2
2019-02-06T12:09:53.143Z,16.1
2019-02-06T12:10:46.899Z,16.1
2019-02-06T12:11:34.385Z,16.1
2019-02-06T12:12:24.334Z,16.1
2019-02-06T12:13:14.387Z,16
2019-02-06T12:14:07.128Z,16
2019-02-06T12:14:53.932Z,15.9
2019-02-06T12:15:46.830Z,15.9
2019-02-06T12:16:37.245Z,15.9
2019-02-06T12:17:24.954Z,15.9
2019-02-06T12:18:14.414Z,15.8
2019-02-06T12:19:19.707Z,15.8
2019-02-06T12:19:57.570Z,15.8
2019-02-06T12:20:44.634Z,15.8
2019-02-06T12:21:35.009Z,15.8
2019-02-06T12:22:24.857Z,15.7
2019-02-06T12:23:15.477Z,15.7
2019-02-06T12:24:05.406Z,15.7
2019-02-06T12:24:54.667Z,15.6
2019-02-06T12:25:47.464Z,15.6
2019-02-06T12:26:35.307Z,15.6
2019-02-06T12:27:24.832Z,15.5
2019-02-06T12:28:16.024Z,15.5
2019-02-06T12:29:07.654Z,15.5
2019-02-06T12:29:56.209Z,15.4
2019-02-06T12:30:46.286Z,15.4
2019-02-06T12:31:35.951Z,15.4
2019-02-06T12:32:26.314Z,15.4
2019-02-06T12:33:15.584Z,15.4
2019-02-06T12:34:06.169Z,15.4
2019-02-06T12:34:58.848Z,15.3
2019-02-06T12:35:45.564Z,15.3
2019-02-06T12:36:35.786Z,15.3
2019-02-06T12:37:25.562Z,15.3
2019-02-06T12:38:15.741Z,15.3
2019-02-06T12:39:06.746Z,15.3
2019-02-06T12:39:56.853Z,15.2
2019-02-06T12:40:47.889Z,15.2
2019-02-06T12:41:36.620Z,15.2
2019-02-06T12:42:26.598Z,15.2
2019-02-06T12:43:18.868Z,15.1
2019-02-06T12:44:05.626Z,15.1
2019-02-06T12:44:58.708Z,15.1
2019-02-06T12:45:45.901Z,15.1
2019-02-06T12:46:39.371Z,15.1
2019-02-06T12:47:28.817Z,15.1
2019-02-06T12:48:15.671Z,15
2019-02-06T12:49:05.843Z,15
2019-02-06T12:49:56.738Z,14.9
2019-02-06T12:50:47.608Z,14.9
2019-02-06T12:51:37.058Z,14.9
2019-02-06T12:52:28.820Z,14.9
2019-02-06T12:53:17.488Z,14.9
2019-02-06T12:54:07.355Z,14.9
2019-02-06T12:54:57.835Z,14.8
2019-02-06T12:55:49.025Z,14.8
2019-02-06T12:56:37.780Z,14.8
2019-02-06T12:57:40.272Z,14.8
2019-02-06T12:58:17.504Z,14.8
2019-02-06T12:59:08.623Z,14.8
2019-02-06T12:59:57.452Z,14.7
2019-02-06T13:00:47.747Z,14.7
2019-02-06T13:01:39.822Z,14.7